sensor_id;sensor_type;location;lat;lon;timestamp;temperature;humidity
66373;SHT30;53168;51.146;17.120;2022-09-29T00:00:57;7.76;79.05
66373;SHT30;53168;51.146;17.120;2022-09-29T00:03:32;7.72;79.13
66373;SHT30;53168;51.146;17.120;2022-09-29T00:06:01;7.68;79.10
66373;SHT30;53168;51.146;17.120;2022-09-29T00:08:30;7.64;79.13
66373;SHT30;53168;51.146;17.120;2022-09-29T00:10:59;7.57;79.11
66373;SHT30;53168;51.146;17.120;2022-09-29T00:13:27;7.50;79.20
66373;SHT30;53168;51.146;17.120;2022-09-29T00:15:57;7.45;79.25
66373;SHT30;53168;51.146;17.120;2022-09-29T00:18:27;7.37;79.30
66373;SHT30;53168;51.146;17.120;2022-09-29T00:20:57;7.30;79.34
66373;SHT30;53168;51.146;17.120;2022-09-29T00:23:27;7.22;79.39
66373;SHT30;53168;51.146;17.120;2022-09-29T00:26:00;7.18;79.47
66373;SHT30;53168;51.146;17.120;2022-09-29T00:28:31;7.16;79.50
66373;SHT30;53168;51.146;17.120;2022-09-29T00:31:01;7.14;79.53
66373;SHT30;53168;51.146;17.120;2022-09-29T00:33:30;7.14;79.60
66373;SHT30;53168;51.146;17.120;2022-09-29T00:36:00;7.16;79.60
66373;SHT30;53168;51.146;17.120;2022-09-29T00:38:30;7.17;79.50
66373;SHT30;53168;51.146;17.120;2022-09-29T00:41:00;7.13;79.49
66373;SHT30;53168;51.146;17.120;2022-09-29T00:43:49;7.09;79.55
66373;SHT30;53168;51.146;17.120;2022-09-29T00:46:23;7.06;79.58
66373;SHT30;53168;51.146;17.120;2022-09-29T00:48:55;7.00;79.61
66373;SHT30;53168;51.146;17.120;2022-09-29T00:51:28;6.96;79.69
66373;SHT30;53168;51.146;17.120;2022-09-29T00:54:01;6.92;79.70
66373;SHT30;53168;51.146;17.120;2022-09-29T00:56:30;6.85;79.73
66373;SHT30;53168;51.146;17.120;2022-09-29T00:59:01;6.78;79.84
66373;SHT30;53168;51.146;17.120;2022-09-29T01:01:31;6.70;79.89
66373;SHT30;53168;51.146;17.120;2022-09-29T01:04:02;6.63;79.88
66373;SHT30;53168;51.146;17.120;2022-09-29T01:06:34;6.57;79.92
66373;SHT30;53168;51.146;17.120;2022-09-29T01:09:06;6.48;79.98
66373;SHT30;53168;51.146;17.120;2022-09-29T01:11:37;6.41;80.05
66373;SHT30;53168;51.146;17.120;2022-09-29T01:14:07;6.35;80.18
66373;SHT30;53168;51.146;17.120;2022-09-29T01:16:37;6.32;80.30
66373;SHT30;53168;51.146;17.120;2022-09-29T01:19:08;6.31;80.31
66373;SHT30;53168;51.146;17.120;2022-09-29T01:21:42;6.30;80.52
66373;SHT30;53168;51.146;17.120;2022-09-29T01:24:26;6.28;80.74
66373;SHT30;53168;51.146;17.120;2022-09-29T01:27:25;6.28;80.94
66373;SHT30;53168;51.146;17.120;2022-09-29T01:30:14;6.26;80.97
66373;SHT30;53168;51.146;17.120;2022-09-29T01:35:44;6.21;80.88
66373;SHT30;53168;51.146;17.120;2022-09-29T01:38:29;6.20;80.89
66373;SHT30;53168;51.146;17.120;2022-09-29T01:41:07;6.19;80.88
66373;SHT30;53168;51.146;17.120;2022-09-29T01:43:44;6.17;80.89
66373;SHT30;53168;51.146;17.120;2022-09-29T01:46:17;6.14;80.94
66373;SHT30;53168;51.146;17.120;2022-09-29T01:48:50;6.10;80.91
66373;SHT30;53168;51.146;17.120;2022-09-29T01:51:24;6.07;80.90
66373;SHT30;53168;51.146;17.120;2022-09-29T01:53:58;6.03;80.90
66373;SHT30;53168;51.146;17.120;2022-09-29T01:56:32;5.99;80.90
66373;SHT30;53168;51.146;17.120;2022-09-29T01:59:09;5.95;80.86
66373;SHT30;53168;51.146;17.120;2022-09-29T02:01:42;5.91;80.88
66373;SHT30;53168;51.146;17.120;2022-09-29T02:04:13;5.87;80.90
66373;SHT30;53168;51.146;17.120;2022-09-29T02:06:47;5.82;80.93
66373;SHT30;53168;51.146;17.120;2022-09-29T02:09:21;5.80;80.98
66373;SHT30;53168;51.146;17.120;2022-09-29T02:11:52;5.79;80.99
66373;SHT30;53168;51.146;17.120;2022-09-29T02:14:24;5.81;81.04
66373;SHT30;53168;51.146;17.120;2022-09-29T02:16:58;5.83;81.10
66373;SHT30;53168;51.146;17.120;2022-09-29T02:19:31;5.86;81.16
66373;SHT30;53168;51.146;17.120;2022-09-29T02:22:02;5.90;81.18
66373;SHT30;53168;51.146;17.120;2022-09-29T02:24:32;5.93;81.19
66373;SHT30;53168;51.146;17.120;2022-09-29T02:27:00;5.94;81.10
66373;SHT30;53168;51.146;17.120;2022-09-29T02:29:30;5.94;81.11
66373;SHT30;53168;51.146;17.120;2022-09-29T02:32:00;5.94;81.11
66373;SHT30;53168;51.146;17.120;2022-09-29T02:34:29;5.93;81.12
66373;SHT30;53168;51.146;17.120;2022-09-29T02:37:02;5.92;81.10
66373;SHT30;53168;51.146;17.120;2022-09-29T02:39:39;5.90;81.09
66373;SHT30;53168;51.146;17.120;2022-09-29T02:42:18;5.87;81.16
66373;SHT30;53168;51.146;17.120;2022-09-29T02:45:03;5.84;81.22
66373;SHT30;53168;51.146;17.120;2022-09-29T02:47:46;5.79;81.31
66373;SHT30;53168;51.146;17.120;2022-09-29T02:50:33;5.77;81.39
66373;SHT30;53168;51.146;17.120;2022-09-29T02:53:11;5.77;81.37
66373;SHT30;53168;51.146;17.120;2022-09-29T02:55:45;5.79;81.31
66373;SHT30;53168;51.146;17.120;2022-09-29T02:58:25;5.81;81.37
66373;SHT30;53168;51.146;17.120;2022-09-29T03:00:57;5.84;81.40
66373;SHT30;53168;51.146;17.120;2022-09-29T03:03:26;5.87;81.31
66373;SHT30;53168;51.146;17.120;2022-09-29T03:05:55;5.88;81.30
66373;SHT30;53168;51.146;17.120;2022-09-29T03:08:24;5.90;81.28
66373;SHT30;53168;51.146;17.120;2022-09-29T03:10:52;5.87;81.14
66373;SHT30;53168;51.146;17.120;2022-09-29T03:13:29;5.80;81.12
66373;SHT30;53168;51.146;17.120;2022-09-29T03:15:57;5.77;81.14
66373;SHT30;53168;51.146;17.120;2022-09-29T03:18:26;5.71;81.09
66373;SHT30;53168;51.146;17.120;2022-09-29T03:20:54;5.64;81.09
66373;SHT30;53168;51.146;17.120;2022-09-29T03:23:23;5.59;81.10
66373;SHT30;53168;51.146;17.120;2022-09-29T03:25:52;5.54;81.11
66373;SHT30;53168;51.146;17.120;2022-09-29T03:28:20;5.51;81.19
66373;SHT30;53168;51.146;17.120;2022-09-29T03:30:49;5.45;81.20
66373;SHT30;53168;51.146;17.120;2022-09-29T03:33:17;5.41;81.22
66373;SHT30;53168;51.146;17.120;2022-09-29T03:35:46;5.41;81.23
66373;SHT30;53168;51.146;17.120;2022-09-29T03:38:14;5.41;81.24
66373;SHT30;53168;51.146;17.120;2022-09-29T03:40:43;5.43;81.24
66373;SHT30;53168;51.146;17.120;2022-09-29T03:43:11;5.44;81.24
66373;SHT30;53168;51.146;17.120;2022-09-29T03:45:47;5.47;81.32
66373;SHT30;53168;51.146;17.120;2022-09-29T03:48:16;5.50;81.34
66373;SHT30;53168;51.146;17.120;2022-09-29T03:50:51;5.49;81.30
66373;SHT30;53168;51.146;17.120;2022-09-29T03:53:20;5.51;81.40
66373;SHT30;53168;51.146;17.120;2022-09-29T03:55:49;5.51;81.40
66373;SHT30;53168;51.146;17.120;2022-09-29T03:58:18;5.49;81.37
66373;SHT30;53168;51.146;17.120;2022-09-29T04:00:47;5.47;81.42
66373;SHT30;53168;51.146;17.120;2022-09-29T04:03:16;5.45;81.53
66373;SHT30;53168;51.146;17.120;2022-09-29T04:05:44;5.45;81.66
66373;SHT30;53168;51.146;17.120;2022-09-29T04:08:13;5.46;81.70
66373;SHT30;53168;51.146;17.120;2022-09-29T04:10:44;5.48;81.68
66373;SHT30;53168;51.146;17.120;2022-09-29T04:13:13;5.49;81.61
66373;SHT30;53168;51.146;17.120;2022-09-29T04:15:47;5.51;81.62
66373;SHT30;53168;51.146;17.120;2022-09-29T04:18:15;5.55;81.58
66373;SHT30;53168;51.146;17.120;2022-09-29T04:20:44;5.57;81.50
66373;SHT30;53168;51.146;17.120;2022-09-29T04:23:12;5.60;81.50
66373;SHT30;53168;51.146;17.120;2022-09-29T04:25:42;5.60;81.49
66373;SHT30;53168;51.146;17.120;2022-09-29T04:28:11;5.57;81.49
66373;SHT30;53168;51.146;17.120;2022-09-29T04:30:40;5.54;81.59
66373;SHT30;53168;51.146;17.120;2022-09-29T04:33:08;5.53;81.60
66373;SHT30;53168;51.146;17.120;2022-09-29T04:35:37;5.49;81.66
66373;SHT30;53168;51.146;17.120;2022-09-29T04:38:05;5.48;81.70
66373;SHT30;53168;51.146;17.120;2022-09-29T04:40:34;5.47;81.70
66373;SHT30;53168;51.146;17.120;2022-09-29T04:43:04;5.45;81.71
66373;SHT30;53168;51.146;17.120;2022-09-29T04:45:33;5.40;81.79
66373;SHT30;53168;51.146;17.120;2022-09-29T04:48:01;5.37;81.92
66373;SHT30;53168;51.146;17.120;2022-09-29T04:50:30;5.34;82.00
66373;SHT30;53168;51.146;17.120;2022-09-29T04:52:58;5.34;82.01
66373;SHT30;53168;51.146;17.120;2022-09-29T04:55:27;5.35;82.02
66373;SHT30;53168;51.146;17.120;2022-09-29T04:57:55;5.39;81.98
66373;SHT30;53168;51.146;17.120;2022-09-29T05:00:24;5.43;81.98
66373;SHT30;53168;51.146;17.120;2022-09-29T05:02:52;5.47;81.99
66373;SHT30;53168;51.146;17.120;2022-09-29T05:05:21;5.49;82.00
66373;SHT30;53168;51.146;17.120;2022-09-29T05:07:49;5.52;82.00
66373;SHT30;53168;51.146;17.120;2022-09-29T05:10:18;5.52;82.00
66373;SHT30;53168;51.146;17.120;2022-09-29T05:12:47;5.54;82.05
66373;SHT30;53168;51.146;17.120;2022-09-29T05:15:17;5.58;82.03
66373;SHT30;53168;51.146;17.120;2022-09-29T05:17:52;5.59;81.99
66373;SHT30;53168;51.146;17.120;2022-09-29T05:20:21;5.61;81.98
66373;SHT30;53168;51.146;17.120;2022-09-29T05:22:49;5.60;82.00
66373;SHT30;53168;51.146;17.120;2022-09-29T05:25:18;5.60;82.15
66373;SHT30;53168;51.146;17.120;2022-09-29T05:27:47;5.62;82.26
66373;SHT30;53168;51.146;17.120;2022-09-29T05:30:15;5.66;82.30
66373;SHT30;53168;51.146;17.120;2022-09-29T05:32:44;5.72;82.24
66373;SHT30;53168;51.146;17.120;2022-09-29T05:35:13;5.81;82.20
66373;SHT30;53168;51.146;17.120;2022-09-29T05:37:41;5.90;82.12
66373;SHT30;53168;51.146;17.120;2022-09-29T05:40:11;5.99;82.02
66373;SHT30;53168;51.146;17.120;2022-09-29T05:42:40;6.08;82.00
66373;SHT30;53168;51.146;17.120;2022-09-29T05:45:09;6.19;82.00
66373;SHT30;53168;51.146;17.120;2022-09-29T05:47:40;6.27;81.84
66373;SHT30;53168;51.146;17.120;2022-09-29T05:50:09;6.32;81.78
66373;SHT30;53168;51.146;17.120;2022-09-29T05:52:38;6.34;81.71
66373;SHT30;53168;51.146;17.120;2022-09-29T05:55:08;6.40;81.70
66373;SHT30;53168;51.146;17.120;2022-09-29T05:57:36;6.46;81.70
66373;SHT30;53168;51.146;17.120;2022-09-29T06:00:06;6.49;81.78
66373;SHT30;53168;51.146;17.120;2022-09-29T06:02:39;6.54;81.82
66373;SHT30;53168;51.146;17.120;2022-09-29T06:05:08;6.60;81.75
66373;SHT30;53168;51.146;17.120;2022-09-29T06:07:36;6.66;81.65
66373;SHT30;53168;51.146;17.120;2022-09-29T06:10:05;6.73;81.61
66373;SHT30;53168;51.146;17.120;2022-09-29T06:12:35;6.80;81.55
66373;SHT30;53168;51.146;17.120;2022-09-29T06:15:04;6.88;81.58
66373;SHT30;53168;51.146;17.120;2022-09-29T06:17:34;6.95;81.57
66373;SHT30;53168;51.146;17.120;2022-09-29T06:20:03;7.00;81.49
66373;SHT30;53168;51.146;17.120;2022-09-29T06:22:34;7.07;81.51
66373;SHT30;53168;51.146;17.120;2022-09-29T06:25:03;7.14;81.34
66373;SHT30;53168;51.146;17.120;2022-09-29T06:27:34;7.23;81.25
66373;SHT30;53168;51.146;17.120;2022-09-29T06:30:03;7.32;81.27
66373;SHT30;53168;51.146;17.120;2022-09-29T06:32:33;7.43;81.32
66373;SHT30;53168;51.146;17.120;2022-09-29T06:35:05;7.52;81.29
66373;SHT30;53168;51.146;17.120;2022-09-29T06:37:53;7.63;81.20
66373;SHT30;53168;51.146;17.120;2022-09-29T06:40:25;7.75;81.16
66373;SHT30;53168;51.146;17.120;2022-09-29T06:42:57;7.87;81.01
66373;SHT30;53168;51.146;17.120;2022-09-29T06:45:40;8.00;80.95
66373;SHT30;53168;51.146;17.120;2022-09-29T06:48:09;8.12;80.96
66373;SHT30;53168;51.146;17.120;2022-09-29T06:50:38;8.26;81.05
66373;SHT30;53168;51.146;17.120;2022-09-29T06:55:43;8.53;80.77
66373;SHT30;53168;51.146;17.120;2022-09-29T06:58:19;8.69;80.61
66373;SHT30;53168;51.146;17.120;2022-09-29T07:00:48;8.88;80.60
66373;SHT30;53168;51.146;17.120;2022-09-29T07:03:17;9.05;80.42
66373;SHT30;53168;51.146;17.120;2022-09-29T07:05:46;9.20;80.36
66373;SHT30;53168;51.146;17.120;2022-09-29T07:08:35;9.31;80.08
66373;SHT30;53168;51.146;17.120;2022-09-29T07:11:06;9.45;80.16
66373;SHT30;53168;51.146;17.120;2022-09-29T07:13:36;9.55;79.95
66373;SHT30;53168;51.146;17.120;2022-09-29T07:16:06;9.60;79.69
66373;SHT30;53168;51.146;17.120;2022-09-29T07:18:35;9.71;79.66
66373;SHT30;53168;51.146;17.120;2022-09-29T07:21:07;9.84;79.64
66373;SHT30;53168;51.146;17.120;2022-09-29T07:23:37;9.97;79.54
66373;SHT30;53168;51.146;17.120;2022-09-29T07:26:07;10.06;79.46
66373;SHT30;53168;51.146;17.120;2022-09-29T07:28:36;10.15;79.39
66373;SHT30;53168;51.146;17.120;2022-09-29T07:31:05;10.23;79.27
66373;SHT30;53168;51.146;17.120;2022-09-29T07:33:42;10.30;79.12
66373;SHT30;53168;51.146;17.120;2022-09-29T07:36:14;10.33;79.12
66373;SHT30;53168;51.146;17.120;2022-09-29T07:38:44;10.39;78.99
66373;SHT30;53168;51.146;17.120;2022-09-29T07:41:14;10.43;78.76
66373;SHT30;53168;51.146;17.120;2022-09-29T07:43:43;10.52;78.81
66373;SHT30;53168;51.146;17.120;2022-09-29T07:46:12;10.62;78.69
66373;SHT30;53168;51.146;17.120;2022-09-29T07:48:40;10.74;78.68
66373;SHT30;53168;51.146;17.120;2022-09-29T07:51:11;10.83;78.35
66373;SHT30;53168;51.146;17.120;2022-09-29T07:53:41;10.92;78.24
66373;SHT30;53168;51.146;17.120;2022-09-29T07:56:11;11.01;77.99
66373;SHT30;53168;51.146;17.120;2022-09-29T07:58:40;11.10;77.35
66373;SHT30;53168;51.146;17.120;2022-09-29T08:01:09;11.16;77.08
66373;SHT30;53168;51.146;17.120;2022-09-29T08:03:40;11.25;77.07
66373;SHT30;53168;51.146;17.120;2022-09-29T08:06:10;11.36;77.03
66373;SHT30;53168;51.146;17.120;2022-09-29T08:08:40;11.47;76.97
66373;SHT30;53168;51.146;17.120;2022-09-29T08:11:23;11.60;76.78
66373;SHT30;53168;51.146;17.120;2022-09-29T08:14:03;11.72;76.07
66373;SHT30;53168;51.146;17.120;2022-09-29T08:16:32;11.75;75.33
66373;SHT30;53168;51.146;17.120;2022-09-29T08:19:02;11.79;75.83
66373;SHT30;53168;51.146;17.120;2022-09-29T08:21:31;11.84;75.84
66373;SHT30;53168;51.146;17.120;2022-09-29T08:24:03;11.90;75.68
66373;SHT30;53168;51.146;17.120;2022-09-29T08:26:34;11.94;75.18
66373;SHT30;53168;51.146;17.120;2022-09-29T08:29:11;11.98;74.82
66373;SHT30;53168;51.146;17.120;2022-09-29T08:31:44;12.10;74.79
66373;SHT30;53168;51.146;17.120;2022-09-29T08:34:13;12.23;74.78
66373;SHT30;53168;51.146;17.120;2022-09-29T08:36:42;12.34;74.58
66373;SHT30;53168;51.146;17.120;2022-09-29T08:39:11;12.40;73.99
66373;SHT30;53168;51.146;17.120;2022-09-29T08:41:45;12.47;74.07
66373;SHT30;53168;51.146;17.120;2022-09-29T08:44:23;12.56;73.66
66373;SHT30;53168;51.146;17.120;2022-09-29T08:47:06;12.68;73.01
66373;SHT30;53168;51.146;17.120;2022-09-29T08:49:44;12.83;73.53
66373;SHT30;53168;51.146;17.120;2022-09-29T08:52:16;13.03;73.73
66373;SHT30;53168;51.146;17.120;2022-09-29T08:54:48;13.28;73.68
66373;SHT30;53168;51.146;17.120;2022-09-29T08:57:21;13.56;73.20
66373;SHT30;53168;51.146;17.120;2022-09-29T08:59:52;13.80;72.58
66373;SHT30;53168;51.146;17.120;2022-09-29T09:02:36;13.99;71.53
66373;SHT30;53168;51.146;17.120;2022-09-29T09:05:26;14.09;71.38
66373;SHT30;53168;51.146;17.120;2022-09-29T09:08:07;14.12;70.73
66373;SHT30;53168;51.146;17.120;2022-09-29T09:10:42;14.14;70.64
66373;SHT30;53168;51.146;17.120;2022-09-29T09:13:16;14.13;70.30
66373;SHT30;53168;51.146;17.120;2022-09-29T09:15:57;14.14;70.63
66373;SHT30;53168;51.146;17.120;2022-09-29T09:18:45;14.20;70.49
66373;SHT30;53168;51.146;17.120;2022-09-29T09:21:34;14.29;70.42
66373;SHT30;53168;51.146;17.120;2022-09-29T09:24:08;14.35;69.51
66373;SHT30;53168;51.146;17.120;2022-09-29T09:26:43;14.29;69.76
66373;SHT30;53168;51.146;17.120;2022-09-29T09:29:15;14.28;69.92
66373;SHT30;53168;51.146;17.120;2022-09-29T09:31:53;14.30;69.32
66373;SHT30;53168;51.146;17.120;2022-09-29T09:34:26;14.27;69.08
66373;SHT30;53168;51.146;17.120;2022-09-29T09:37:11;14.23;69.15
66373;SHT30;53168;51.146;17.120;2022-09-29T09:39:44;14.20;69.37
66373;SHT30;53168;51.146;17.120;2022-09-29T09:42:17;14.23;69.28
66373;SHT30;53168;51.146;17.120;2022-09-29T09:44:48;14.24;68.90
66373;SHT30;53168;51.146;17.120;2022-09-29T09:47:22;14.21;68.49
66373;SHT30;53168;51.146;17.120;2022-09-29T09:49:54;14.17;68.11
66373;SHT30;53168;51.146;17.120;2022-09-29T09:52:28;14.20;68.09
66373;SHT30;53168;51.146;17.120;2022-09-29T09:55:00;14.23;67.85
66373;SHT30;53168;51.146;17.120;2022-09-29T09:57:35;14.28;68.11
66373;SHT30;53168;51.146;17.120;2022-09-29T10:00:13;14.37;68.04
66373;SHT30;53168;51.146;17.120;2022-09-29T10:02:46;14.40;67.40
66373;SHT30;53168;51.146;17.120;2022-09-29T10:05:17;14.47;67.24
66373;SHT30;53168;51.146;17.120;2022-09-29T10:07:47;14.55;67.20
66373;SHT30;53168;51.146;17.120;2022-09-29T10:10:17;14.62;67.04
66373;SHT30;53168;51.146;17.120;2022-09-29T10:12:48;14.69;67.10
66373;SHT30;53168;51.146;17.120;2022-09-29T10:15:28;14.78;66.82
66373;SHT30;53168;51.146;17.120;2022-09-29T10:18:02;14.87;66.09
66373;SHT30;53168;51.146;17.120;2022-09-29T10:20:33;14.91;65.50
66373;SHT30;53168;51.146;17.120;2022-09-29T10:23:22;14.91;65.25
66373;SHT30;53168;51.146;17.120;2022-09-29T10:25:52;14.83;65.10
66373;SHT30;53168;51.146;17.120;2022-09-29T10:28:25;14.82;65.15
66373;SHT30;53168;51.146;17.120;2022-09-29T10:30:57;14.77;65.16
66373;SHT30;53168;51.146;17.120;2022-09-29T10:33:25;14.71;64.90
66373;SHT30;53168;51.146;17.120;2022-09-29T10:36:06;14.60;64.66
66373;SHT30;53168;51.146;17.120;2022-09-29T10:38:37;14.56;64.39
66373;SHT30;53168;51.146;17.120;2022-09-29T10:41:21;14.59;64.45
66373;SHT30;53168;51.146;17.120;2022-09-29T10:43:51;14.60;63.91
66373;SHT30;53168;51.146;17.120;2022-09-29T10:46:36;14.64;63.88
66373;SHT30;53168;51.146;17.120;2022-09-29T10:49:19;14.69;64.06
66373;SHT30;53168;51.146;17.120;2022-09-29T10:51:51;14.82;64.22
66373;SHT30;53168;51.146;17.120;2022-09-29T10:54:27;15.03;63.93
66373;SHT30;53168;51.146;17.120;2022-09-29T10:57:10;15.32;63.61
66373;SHT30;53168;51.146;17.120;2022-09-29T10:59:45;15.56;63.52
66373;SHT30;53168;51.146;17.120;2022-09-29T11:02:16;15.82;63.53
66373;SHT30;53168;51.146;17.120;2022-09-29T11:04:51;16.11;63.58
66373;SHT30;53168;51.146;17.120;2022-09-29T11:07:23;16.33;63.01
66373;SHT30;53168;51.146;17.120;2022-09-29T11:09:52;16.54;62.42
66373;SHT30;53168;51.146;17.120;2022-09-29T11:12:28;16.75;62.19
66373;SHT30;53168;51.146;17.120;2022-09-29T11:14:59;16.85;60.58
66373;SHT30;53168;51.146;17.120;2022-09-29T11:17:29;16.80;59.73
66373;SHT30;53168;51.146;17.120;2022-09-29T11:20:15;16.93;60.25
66373;SHT30;53168;51.146;17.120;2022-09-29T11:22:49;17.16;60.83
66373;SHT30;53168;51.146;17.120;2022-09-29T11:28:27;17.56;59.47
66373;SHT30;53168;51.146;17.120;2022-09-29T11:31:12;17.64;58.67
66373;SHT30;53168;51.146;17.120;2022-09-29T11:33:53;17.79;58.82
66373;SHT30;53168;51.146;17.120;2022-09-29T11:36:30;17.82;56.94
66373;SHT30;53168;51.146;17.120;2022-09-29T12:57:33;22.46;45.67
66373;SHT30;53168;51.146;17.120;2022-09-29T13:00:10;22.17;44.75
66373;SHT30;53168;51.146;17.120;2022-09-29T13:05:47;24.64;42.79
66373;SHT30;53168;51.146;17.120;2022-09-29T13:11:36;27.45;39.50
66373;SHT30;53168;51.146;17.120;2022-09-29T13:14:31;26.89;40.42
66373;SHT30;53168;51.146;17.120;2022-09-29T13:17:25;28.24;38.55
66373;SHT30;53168;51.146;17.120;2022-09-29T13:26:24;26.33;38.20
66373;SHT30;53168;51.146;17.120;2022-09-29T13:29:11;27.37;37.42
66373;SHT30;53168;51.146;17.120;2022-09-29T13:31:47;25.73;39.17
66373;SHT30;53168;51.146;17.120;2022-09-29T13:34:24;24.38;39.15
66373;SHT30;53168;51.146;17.120;2022-09-29T13:37:07;23.56;38.97
66373;SHT30;53168;51.146;17.120;2022-09-29T13:39:51;23.58;38.41
66373;SHT30;53168;51.146;17.120;2022-09-29T13:42:41;24.87;37.23
66373;SHT30;53168;51.146;17.120;2022-09-29T13:45:18;26.92;35.31
66373;SHT30;53168;51.146;17.120;2022-09-29T13:51:39;24.32;37.68
66373;SHT30;53168;51.146;17.120;2022-09-29T13:54:24;23.23;38.43
66373;SHT30;53168;51.146;17.120;2022-09-29T13:57:21;22.66;38.41
66373;SHT30;53168;51.146;17.120;2022-09-29T14:03:05;27.09;34.77
66373;SHT30;53168;51.146;17.120;2022-09-29T14:05:55;27.56;34.39
66373;SHT30;53168;51.146;17.120;2022-09-29T14:08:54;26.94;34.36
66373;SHT30;53168;51.146;17.120;2022-09-29T14:11:33;25.13;35.59
66373;SHT30;53168;51.146;17.120;2022-09-29T14:14:12;23.81;36.15
66373;SHT30;53168;51.146;17.120;2022-09-29T14:16:53;23.95;35.29
66373;SHT30;53168;51.146;17.120;2022-09-29T14:25:29;27.39;31.97
66373;SHT30;53168;51.146;17.120;2022-09-29T14:28:25;26.13;33.23
66373;SHT30;53168;51.146;17.120;2022-09-29T14:31:04;25.12;34.13
66373;SHT30;53168;51.146;17.120;2022-09-29T14:33:51;23.59;34.90
66373;SHT30;53168;51.146;17.120;2022-09-29T14:36:24;22.41;35.46
66373;SHT30;53168;51.146;17.120;2022-09-29T14:38:56;21.43;35.96
66373;SHT30;53168;51.146;17.120;2022-09-29T14:41:51;20.57;36.25
66373;SHT30;53168;51.146;17.120;2022-09-29T14:44:25;19.98;36.96
66373;SHT30;53168;51.146;17.120;2022-09-29T14:47:27;20.05;37.09
66373;SHT30;53168;51.146;17.120;2022-09-29T14:50:27;21.31;36.44
66373;SHT30;53168;51.146;17.120;2022-09-29T14:53:39;21.33;36.42
66373;SHT30;53168;51.146;17.120;2022-09-29T14:56:29;20.97;37.81
66373;SHT30;53168;51.146;17.120;2022-09-29T14:59:45;20.19;38.62
66373;SHT30;53168;51.146;17.120;2022-09-29T15:02:28;19.63;39.06
66373;SHT30;53168;51.146;17.120;2022-09-29T15:05:22;19.26;39.65
66373;SHT30;53168;51.146;17.120;2022-09-29T15:08:18;19.19;39.72
66373;SHT30;53168;51.146;17.120;2022-09-29T15:10:59;18.83;41.00
66373;SHT30;53168;51.146;17.120;2022-09-29T15:13:34;18.49;41.14
66373;SHT30;53168;51.146;17.120;2022-09-29T15:16:12;18.19;41.14
66373;SHT30;53168;51.146;17.120;2022-09-29T15:19:21;18.11;41.81
66373;SHT30;53168;51.146;17.120;2022-09-29T15:22:08;18.53;41.71
66373;SHT30;53168;51.146;17.120;2022-09-29T15:24:58;18.75;41.57
66373;SHT30;53168;51.146;17.120;2022-09-29T15:27:40;18.63;41.63
66373;SHT30;53168;51.146;17.120;2022-09-29T15:30:15;18.46;41.83
66373;SHT30;53168;51.146;17.120;2022-09-29T15:32:49;18.37;42.10
66373;SHT30;53168;51.146;17.120;2022-09-29T15:35:24;18.52;41.94
66373;SHT30;53168;51.146;17.120;2022-09-29T15:38:14;18.72;42.32
66373;SHT30;53168;51.146;17.120;2022-09-29T15:40:57;18.68;43.03
66373;SHT30;53168;51.146;17.120;2022-09-29T15:43:39;18.40;42.80
66373;SHT30;53168;51.146;17.120;2022-09-29T15:46:20;18.08;42.79
66373;SHT30;53168;51.146;17.120;2022-09-29T15:49:18;17.86;43.26
66373;SHT30;53168;51.146;17.120;2022-09-29T15:51:56;17.63;43.95
66373;SHT30;53168;51.146;17.120;2022-09-29T15:54:30;17.31;44.60
66373;SHT30;53168;51.146;17.120;2022-09-29T15:57:11;17.03;45.22
66373;SHT30;53168;51.146;17.120;2022-09-29T16:03:22;16.62;46.59
66373;SHT30;53168;51.146;17.120;2022-09-29T16:06:12;16.25;47.47
66373;SHT30;53168;51.146;17.120;2022-09-29T16:08:47;15.94;48.02
66373;SHT30;53168;51.146;17.120;2022-09-29T16:11:27;15.64;48.91
66373;SHT30;53168;51.146;17.120;2022-09-29T16:14:06;15.33;49.38
66373;SHT30;53168;51.146;17.120;2022-09-29T16:16:42;15.10;49.69
66373;SHT30;53168;51.146;17.120;2022-09-29T16:19:18;14.88;50.00
66373;SHT30;53168;51.146;17.120;2022-09-29T16:21:56;14.65;50.64
66373;SHT30;53168;51.146;17.120;2022-09-29T16:24:32;14.39;51.03
66373;SHT30;53168;51.146;17.120;2022-09-29T16:27:36;14.17;51.27
66373;SHT30;53168;51.146;17.120;2022-09-29T16:30:20;13.89;52.07
66373;SHT30;53168;51.146;17.120;2022-09-29T16:33:00;13.64;52.34
66373;SHT30;53168;51.146;17.120;2022-09-29T16:35:43;13.45;52.75
66373;SHT30;53168;51.146;17.120;2022-09-29T16:38:37;13.27;53.19
66373;SHT30;53168;51.146;17.120;2022-09-29T16:41:17;13.11;53.57
66373;SHT30;53168;51.146;17.120;2022-09-29T16:44:30;12.91;54.14
66373;SHT30;53168;51.146;17.120;2022-09-29T16:47:11;12.75;54.53
66373;SHT30;53168;51.146;17.120;2022-09-29T16:49:46;12.60;54.91
66373;SHT30;53168;51.146;17.120;2022-09-29T16:52:22;12.47;55.29
66373;SHT30;53168;51.146;17.120;2022-09-29T16:55:10;12.32;56.09
66373;SHT30;53168;51.146;17.120;2022-09-29T16:57:52;12.14;56.33
66373;SHT30;53168;51.146;17.120;2022-09-29T17:00:37;11.99;56.72
66373;SHT30;53168;51.146;17.120;2022-09-29T17:03:12;11.86;57.03
66373;SHT30;53168;51.146;17.120;2022-09-29T17:05:44;11.74;57.46
66373;SHT30;53168;51.146;17.120;2022-09-29T17:08:20;11.63;57.38
66373;SHT30;53168;51.146;17.120;2022-09-29T17:10:54;11.57;57.35
66373;SHT30;53168;51.146;17.120;2022-09-29T17:13:26;11.51;57.71
66373;SHT30;53168;51.146;17.120;2022-09-29T17:16:02;11.44;58.08
66373;SHT30;53168;51.146;17.120;2022-09-29T17:18:38;11.37;58.38
66373;SHT30;53168;51.146;17.120;2022-09-29T17:21:11;11.28;58.64
66373;SHT30;53168;51.146;17.120;2022-09-29T17:23:45;11.22;58.91
66373;SHT30;53168;51.146;17.120;2022-09-29T17:26:19;11.15;59.10
66373;SHT30;53168;51.146;17.120;2022-09-29T17:29:14;11.08;59.38
66373;SHT30;53168;51.146;17.120;2022-09-29T17:31:46;11.01;59.67
66373;SHT30;53168;51.146;17.120;2022-09-29T17:34:19;10.94;59.92
66373;SHT30;53168;51.146;17.120;2022-09-29T17:36:58;10.87;60.13
66373;SHT30;53168;51.146;17.120;2022-09-29T17:39:33;10.80;60.36
66373;SHT30;53168;51.146;17.120;2022-09-29T17:42:05;10.74;60.56
66373;SHT30;53168;51.146;17.120;2022-09-29T17:44:38;10.69;60.57
66373;SHT30;53168;51.146;17.120;2022-09-29T17:47:13;10.64;60.83
66373;SHT30;53168;51.146;17.120;2022-09-29T17:49:57;10.60;61.11
66373;SHT30;53168;51.146;17.120;2022-09-29T17:52:40;10.55;61.26
66373;SHT30;53168;51.146;17.120;2022-09-29T17:55:13;10.51;61.42
66373;SHT30;53168;51.146;17.120;2022-09-29T17:57:45;10.49;61.65
66373;SHT30;53168;51.146;17.120;2022-09-29T18:00:18;10.45;61.83
66373;SHT30;53168;51.146;17.120;2022-09-29T18:02:53;10.44;62.01
66373;SHT30;53168;51.146;17.120;2022-09-29T18:05:27;10.40;62.26
66373;SHT30;53168;51.146;17.120;2022-09-29T18:08:01;10.42;62.45